Afton, Wisconsin
Current Conditions -  °F | °C
As of 5:45 AM on Friday 24 Oct 2014 (Local Time) from KJVL Reporting Station
Haze Haze  
Wind Chill: 11°   Ceiling: 300
Heat Index: 11°   Visibility: 2mi
Dew Point:   Wind: 6mph
Humidity: 88%   Direction: 320°NW
Pressure: 30.05"   Gusts: NA
Location:  42.6°N, 89.07°W
Report Text: KJVL 241045Z 32005KT 2SM BR OVC003 11/09 A3005 RMK FIRST
Loading
Personal Weather Stations






























Interactive Weather Map
Tropical Storm Tracking
New forecast layout! Learn more

10-Day Weather Forecast

Advertisements
Track Severe Weather on mobile